Terminal Aerodrome Forecast
Issued by NWS

Home | Current Version | Previous Version | Graphics & Text | Print | Product List | Glossary On
Versions: 1 2 3 4 5 6 7 8 9 10 11 12 13
000
FTUS43 KTOP 021732
TAFFOE
TAF
KFOE 021732Z 0218/0318 18013G22KT P6SM BKN100
     FM030100 18010KT P6SM SKC
     FM031500 20014G22KT P6SM SKC=

USA.gov is the U.S. government's official web portal to all federal, state and local government web resources and services.